sensor_id;sensor_type;location;lat;lon;timestamp;pressure;altitude;pressure_sealevel;temperature;humidity
56992;BME280;42885;49.754;18.636;2022-10-16T00:02:00;98451.80;;;17.58;100.00
56992;BME280;42885;49.754;18.636;2022-10-16T00:04:31;98445.76;;;17.62;100.00
56992;BME280;42885;49.754;18.636;2022-10-16T00:07:02;98455.61;;;17.75;100.00
56992;BME280;42885;49.754;18.636;2022-10-16T00:09:33;98452.27;;;17.73;100.00
56992;BME280;42885;49.754;18.636;2022-10-16T00:12:04;98456.92;;;17.66;100.00
56992;BME280;42885;49.754;18.636;2022-10-16T00:14:36;98461.13;;;17.78;100.00
56992;BME280;42885;49.754;18.636;2022-10-16T00:17:09;98466.73;;;17.85;100.00
56992;BME280;42885;49.754;18.636;2022-10-16T00:19:39;98471.75;;;17.88;100.00
56992;BME280;42885;49.754;18.636;2022-10-16T00:22:10;98465.77;;;17.96;100.00
56992;BME280;42885;49.754;18.636;2022-10-16T00:24:42;98468.06;;;17.95;100.00
56992;BME280;42885;49.754;18.636;2022-10-16T00:27:13;98467.66;;;17.89;100.00
56992;BME280;42885;49.754;18.636;2022-10-16T00:29:44;98466.81;;;18.05;100.00
56992;BME280;42885;49.754;18.636;2022-10-16T00:32:14;98468.23;;;18.03;100.00
56992;BME280;42885;49.754;18.636;2022-10-16T00:34:46;98472.04;;;17.95;100.00
56992;BME280;42885;49.754;18.636;2022-10-16T00:37:16;98468.41;;;17.96;100.00
56992;BME280;42885;49.754;18.636;2022-10-16T00:39:47;98466.55;;;18.02;100.00
56992;BME280;42885;49.754;18.636;2022-10-16T00:42:19;98467.28;;;18.04;100.00
56992;BME280;42885;49.754;18.636;2022-10-16T00:44:55;98479.57;;;17.89;100.00
56992;BME280;42885;49.754;18.636;2022-10-16T00:47:35;98478.53;;;17.96;100.00
56992;BME280;42885;49.754;18.636;2022-10-16T00:50:32;98474.93;;;17.82;100.00
56992;BME280;42885;49.754;18.636;2022-10-16T00:53:04;98473.13;;;17.82;100.00
56992;BME280;42885;49.754;18.636;2022-10-16T00:55:35;98469.17;;;17.92;100.00
56992;BME280;42885;49.754;18.636;2022-10-16T00:58:06;98474.47;;;17.92;100.00
56992;BME280;42885;49.754;18.636;2022-10-16T01:00:38;98472.95;;;17.89;100.00
56992;BME280;42885;49.754;18.636;2022-10-16T01:03:28;98470.20;;;17.85;100.00
56992;BME280;42885;49.754;18.636;2022-10-16T01:08:53;98474.56;;;17.96;100.00
56992;BME280;42885;49.754;18.636;2022-10-16T01:11:44;98466.80;;;17.89;100.00
56992;BME280;42885;49.754;18.636;2022-10-16T01:14:20;98464.32;;;17.97;100.00
56992;BME280;42885;49.754;18.636;2022-10-16T01:19:41;98468.35;;;17.92;100.00
56992;BME280;42885;49.754;18.636;2022-10-16T01:22:10;98461.52;;;18.05;100.00
56992;BME280;42885;49.754;18.636;2022-10-16T01:24:44;98463.88;;;18.08;100.00
56992;BME280;42885;49.754;18.636;2022-10-16T01:27:21;98465.96;;;18.04;100.00
56992;BME280;42885;49.754;18.636;2022-10-16T01:29:56;98457.80;;;18.01;100.00
56992;BME280;42885;49.754;18.636;2022-10-16T01:32:40;98455.81;;;17.94;100.00
56992;BME280;42885;49.754;18.636;2022-10-16T01:38:19;98456.75;;;17.83;100.00
56992;BME280;42885;49.754;18.636;2022-10-16T01:40:56;98462.28;;;17.70;100.00
56992;BME280;42885;49.754;18.636;2022-10-16T01:43:33;98469.23;;;17.61;100.00
56992;BME280;42885;49.754;18.636;2022-10-16T01:46:03;98469.59;;;17.72;100.00
56992;BME280;42885;49.754;18.636;2022-10-16T01:48:36;98470.91;;;17.72;100.00
56992;BME280;42885;49.754;18.636;2022-10-16T01:51:10;98463.95;;;17.71;100.00
56992;BME280;42885;49.754;18.636;2022-10-16T01:53:43;98463.95;;;17.71;100.00
56992;BME280;42885;49.754;18.636;2022-10-16T01:56:17;98473.21;;;17.71;100.00
56992;BME280;42885;49.754;18.636;2022-10-16T01:58:58;98472.84;;;17.60;100.00
56992;BME280;42885;49.754;18.636;2022-10-16T02:01:31;98476.89;;;17.64;100.00
56992;BME280;42885;49.754;18.636;2022-10-16T02:04:19;98474.71;;;17.64;100.00
56992;BME280;42885;49.754;18.636;2022-10-16T02:06:49;98482.30;;;17.63;100.00
56992;BME280;42885;49.754;18.636;2022-10-16T02:09:21;98476.94;;;17.58;100.00
56992;BME280;42885;49.754;18.636;2022-10-16T02:11:53;98481.78;;;17.69;100.00
56992;BME280;42885;49.754;18.636;2022-10-16T02:14:25;98481.53;;;17.56;100.00
56992;BME280;42885;49.754;18.636;2022-10-16T02:16:57;98491.73;;;17.55;100.00
56992;BME280;42885;49.754;18.636;2022-10-16T02:19:27;98501.21;;;17.42;100.00
56992;BME280;42885;49.754;18.636;2022-10-16T02:22:01;98503.97;;;17.46;100.00
56992;BME280;42885;49.754;18.636;2022-10-16T02:24:51;98506.03;;;17.43;100.00
56992;BME280;42885;49.754;18.636;2022-10-16T02:30:36;98511.33;;;17.43;100.00
56992;BME280;42885;49.754;18.636;2022-10-16T02:33:10;98512.65;;;17.43;100.00
56992;BME280;42885;49.754;18.636;2022-10-16T02:35:44;98518.21;;;17.40;100.00
56992;BME280;42885;49.754;18.636;2022-10-16T02:38:17;98514.78;;;17.49;100.00
56992;BME280;42885;49.754;18.636;2022-10-16T02:40:49;98518.91;;;17.42;100.00
56992;BME280;42885;49.754;18.636;2022-10-16T02:43:20;98515.80;;;17.37;100.00
56992;BME280;42885;49.754;18.636;2022-10-16T02:45:51;98517.75;;;17.34;100.00
56992;BME280;42885;49.754;18.636;2022-10-16T02:48:22;98511.20;;;17.44;100.00
56992;BME280;42885;49.754;18.636;2022-10-16T02:50:53;98515.19;;;17.39;100.00
56992;BME280;42885;49.754;18.636;2022-10-16T02:53:23;98509.03;;;17.44;100.00
56992;BME280;42885;49.754;18.636;2022-10-16T02:55:54;98514.36;;;17.38;100.00
56992;BME280;42885;49.754;18.636;2022-10-16T02:58:25;98510.56;;;17.31;100.00
56992;BME280;42885;49.754;18.636;2022-10-16T03:00:56;98513.50;;;17.43;100.00
56992;BME280;42885;49.754;18.636;2022-10-16T03:03:27;98516.16;;;17.38;100.00
56992;BME280;42885;49.754;18.636;2022-10-16T03:06:00;98514.78;;;17.49;100.00
56992;BME280;42885;49.754;18.636;2022-10-16T03:08:32;98510.81;;;17.49;100.00
56992;BME280;42885;49.754;18.636;2022-10-16T03:11:02;98512.66;;;17.58;100.00
56992;BME280;42885;49.754;18.636;2022-10-16T03:13:33;98514.32;;;17.44;100.00
56992;BME280;42885;49.754;18.636;2022-10-16T03:16:04;98512.18;;;17.43;100.00
56992;BME280;42885;49.754;18.636;2022-10-16T03:18:35;98522.26;;;17.44;100.00
56992;BME280;42885;49.754;18.636;2022-10-16T03:21:06;98517.66;;;17.46;100.00
56992;BME280;42885;49.754;18.636;2022-10-16T03:23:37;98517.27;;;17.51;100.00
56992;BME280;42885;49.754;18.636;2022-10-16T03:26:08;98524.91;;;17.44;100.00
56992;BME280;42885;49.754;18.636;2022-10-16T03:28:39;98524.51;;;17.48;100.00
56992;BME280;42885;49.754;18.636;2022-10-16T03:31:10;98526.91;;;17.52;100.00
56992;BME280;42885;49.754;18.636;2022-10-16T03:33:40;98526.41;;;17.52;100.00
56992;BME280;42885;49.754;18.636;2022-10-16T03:36:12;98522.37;;;17.42;100.00
56992;BME280;42885;49.754;18.636;2022-10-16T03:38:44;98520.11;;;17.43;100.00
56992;BME280;42885;49.754;18.636;2022-10-16T03:41:15;98530.36;;;17.37;100.00
56992;BME280;42885;49.754;18.636;2022-10-16T03:43:45;98519.27;;;17.43;100.00
56992;BME280;42885;49.754;18.636;2022-10-16T03:46:16;98523.70;;;17.42;100.00
56992;BME280;42885;49.754;18.636;2022-10-16T03:48:47;98526.84;;;17.42;100.00
56992;BME280;42885;49.754;18.636;2022-10-16T03:51:18;98531.52;;;17.44;100.00
56992;BME280;42885;49.754;18.636;2022-10-16T03:53:49;98538.05;;;17.40;100.00
56992;BME280;42885;49.754;18.636;2022-10-16T03:56:20;98539.10;;;17.43;100.00
56992;BME280;42885;49.754;18.636;2022-10-16T03:58:50;98539.19;;;17.31;100.00
56992;BME280;42885;49.754;18.636;2022-10-16T04:01:21;98543.86;;;17.33;100.00
56992;BME280;42885;49.754;18.636;2022-10-16T04:03:52;98544.78;;;17.38;100.00
56992;BME280;42885;49.754;18.636;2022-10-16T04:06:23;98547.36;;;17.28;100.00
56992;BME280;42885;49.754;18.636;2022-10-16T04:08:54;98545.05;;;17.35;100.00
56992;BME280;42885;49.754;18.636;2022-10-16T04:11:24;98542.80;;;17.46;100.00
56992;BME280;42885;49.754;18.636;2022-10-16T04:13:55;98540.50;;;17.47;100.00
56992;BME280;42885;49.754;18.636;2022-10-16T04:16:27;98533.50;;;17.36;100.00
56992;BME280;42885;49.754;18.636;2022-10-16T04:18:58;98549.14;;;17.33;100.00
56992;BME280;42885;49.754;18.636;2022-10-16T04:21:29;98546.30;;;17.25;100.00
56992;BME280;42885;49.754;18.636;2022-10-16T04:24:00;98541.91;;;17.36;100.00
56992;BME280;42885;49.754;18.636;2022-10-16T04:26:30;98547.78;;;17.18;100.00
56992;BME280;42885;49.754;18.636;2022-10-16T04:29:01;98546.11;;;17.17;100.00
56992;BME280;42885;49.754;18.636;2022-10-16T04:31:32;98545.53;;;17.34;100.00
56992;BME280;42885;49.754;18.636;2022-10-16T04:34:03;98548.06;;;17.30;100.00
56992;BME280;42885;49.754;18.636;2022-10-16T04:36:34;98547.08;;;17.37;100.00
56992;BME280;42885;49.754;18.636;2022-10-16T04:39:05;98544.86;;;17.42;100.00
56992;BME280;42885;49.754;18.636;2022-10-16T04:41:36;98544.66;;;17.40;100.00
56992;BME280;42885;49.754;18.636;2022-10-16T04:44:07;98550.39;;;17.45;100.00
56992;BME280;42885;49.754;18.636;2022-10-16T04:46:37;98546.45;;;17.39;100.00
56992;BME280;42885;49.754;18.636;2022-10-16T04:49:08;98546.81;;;17.40;100.00
56992;BME280;42885;49.754;18.636;2022-10-16T04:51:39;98542.33;;;17.46;100.00
56992;BME280;42885;49.754;18.636;2022-10-16T04:54:10;98555.02;;;17.37;100.00
56992;BME280;42885;49.754;18.636;2022-10-16T04:56:41;98547.82;;;17.33;100.00
56992;BME280;42885;49.754;18.636;2022-10-16T04:59:20;98548.13;;;17.40;100.00
56992;BME280;42885;49.754;18.636;2022-10-16T05:01:51;98554.55;;;17.32;100.00
56992;BME280;42885;49.754;18.636;2022-10-16T05:04:22;98556.19;;;17.39;100.00
56992;BME280;42885;49.754;18.636;2022-10-16T05:06:53;98560.39;;;17.41;100.00
56992;BME280;42885;49.754;18.636;2022-10-16T05:09:24;98557.23;;;17.47;100.00
56992;BME280;42885;49.754;18.636;2022-10-16T05:11:55;98556.67;;;17.59;100.00
56992;BME280;42885;49.754;18.636;2022-10-16T05:14:26;98558.92;;;17.64;100.00
56992;BME280;42885;49.754;18.636;2022-10-16T05:16:57;98558.80;;;17.66;100.00
56992;BME280;42885;49.754;18.636;2022-10-16T05:19:27;98553.52;;;17.66;100.00
56992;BME280;42885;49.754;18.636;2022-10-16T05:21:58;98557.91;;;17.71;100.00
56992;BME280;42885;49.754;18.636;2022-10-16T05:24:29;98556.23;;;17.70;100.00
56992;BME280;42885;49.754;18.636;2022-10-16T05:27:00;98556.19;;;17.75;100.00
56992;BME280;42885;49.754;18.636;2022-10-16T05:29:31;98563.20;;;17.71;100.00
56992;BME280;42885;49.754;18.636;2022-10-16T05:32:01;98558.97;;;17.58;100.00
56992;BME280;42885;49.754;18.636;2022-10-16T05:34:32;98560.58;;;17.50;100.00
56992;BME280;42885;49.754;18.636;2022-10-16T05:37:03;98558.86;;;17.54;100.00
56992;BME280;42885;49.754;18.636;2022-10-16T05:39:34;98561.66;;;17.53;100.00
56992;BME280;42885;49.754;18.636;2022-10-16T05:42:06;98565.98;;;17.54;100.00
56992;BME280;42885;49.754;18.636;2022-10-16T05:44:38;98569.91;;;17.59;100.00
56992;BME280;42885;49.754;18.636;2022-10-16T05:47:08;98571.13;;;17.55;100.00
56992;BME280;42885;49.754;18.636;2022-10-16T05:49:40;98573.06;;;17.53;100.00
56992;BME280;42885;49.754;18.636;2022-10-16T05:52:11;98578.16;;;17.66;100.00
56992;BME280;42885;49.754;18.636;2022-10-16T05:54:42;98581.13;;;17.73;100.00
56992;BME280;42885;49.754;18.636;2022-10-16T05:57:13;98578.09;;;17.78;100.00
56992;BME280;42885;49.754;18.636;2022-10-16T05:59:44;98581.62;;;17.88;100.00
56992;BME280;42885;49.754;18.636;2022-10-16T06:02:16;98581.30;;;17.97;100.00
56992;BME280;42885;49.754;18.636;2022-10-16T06:04:48;98588.14;;;17.99;100.00
56992;BME280;42885;49.754;18.636;2022-10-16T06:07:19;98583.63;;;18.11;100.00
56992;BME280;42885;49.754;18.636;2022-10-16T06:09:50;98587.70;;;18.15;100.00
56992;BME280;42885;49.754;18.636;2022-10-16T06:12:22;98596.20;;;18.35;100.00
56992;BME280;42885;49.754;18.636;2022-10-16T06:14:53;98602.93;;;18.49;100.00
56992;BME280;42885;49.754;18.636;2022-10-16T06:17:24;98611.89;;;18.67;100.00
56992;BME280;42885;49.754;18.636;2022-10-16T06:19:54;98608.77;;;18.68;100.00
56992;BME280;42885;49.754;18.636;2022-10-16T06:22:25;98605.92;;;18.85;100.00
56992;BME280;42885;49.754;18.636;2022-10-16T06:24:57;98610.98;;;19.28;100.00
56992;BME280;42885;49.754;18.636;2022-10-16T06:27:28;98618.78;;;19.59;96.97
56992;BME280;42885;49.754;18.636;2022-10-16T06:29:59;98612.79;;;19.57;96.04
56992;BME280;42885;49.754;18.636;2022-10-16T06:32:30;98603.16;;;19.36;95.27
56992;BME280;42885;49.754;18.636;2022-10-16T06:35:01;98611.68;;;19.30;99.29
56992;BME280;42885;49.754;18.636;2022-10-16T06:37:32;98617.42;;;19.15;99.75
56992;BME280;42885;49.754;18.636;2022-10-16T06:40:03;98629.56;;;19.08;100.00
56992;BME280;42885;49.754;18.636;2022-10-16T06:42:34;98637.98;;;18.97;100.00
56992;BME280;42885;49.754;18.636;2022-10-16T06:45:05;98646.13;;;18.90;100.00
56992;BME280;42885;49.754;18.636;2022-10-16T06:47:36;98639.28;;;18.88;100.00
56992;BME280;42885;49.754;18.636;2022-10-16T06:50:07;98640.17;;;18.82;100.00
56992;BME280;42885;49.754;18.636;2022-10-16T06:52:38;98646.20;;;18.84;100.00
56992;BME280;42885;49.754;18.636;2022-10-16T06:55:09;98652.95;;;18.83;100.00
56992;BME280;42885;49.754;18.636;2022-10-16T06:57:40;98660.37;;;18.89;100.00
56992;BME280;42885;49.754;18.636;2022-10-16T07:00:11;98670.14;;;19.14;100.00
56992;BME280;42885;49.754;18.636;2022-10-16T07:02:42;98669.00;;;19.17;99.90
56992;BME280;42885;49.754;18.636;2022-10-16T07:05:13;98673.46;;;19.06;100.00
56992;BME280;42885;49.754;18.636;2022-10-16T07:07:45;98673.41;;;19.02;100.00
56992;BME280;42885;49.754;18.636;2022-10-16T07:10:16;98674.73;;;18.87;100.00
56992;BME280;42885;49.754;18.636;2022-10-16T07:12:47;98660.96;;;19.03;100.00
56992;BME280;42885;49.754;18.636;2022-10-16T07:15:17;98665.66;;;18.99;100.00
56992;BME280;42885;49.754;18.636;2022-10-16T07:17:48;98665.95;;;18.96;100.00
56992;BME280;42885;49.754;18.636;2022-10-16T07:20:19;98669.28;;;19.14;100.00
56992;BME280;42885;49.754;18.636;2022-10-16T07:22:50;98672.50;;;19.17;100.00
56992;BME280;42885;49.754;18.636;2022-10-16T07:25:21;98680.83;;;19.28;100.00
56992;BME280;42885;49.754;18.636;2022-10-16T07:27:52;98674.59;;;19.33;100.00
56992;BME280;42885;49.754;18.636;2022-10-16T07:30:25;98678.16;;;19.48;100.00
56992;BME280;42885;49.754;18.636;2022-10-16T07:32:56;98682.91;;;19.44;100.00
56992;BME280;42885;49.754;18.636;2022-10-16T07:35:26;98672.50;;;19.37;100.00
56992;BME280;42885;49.754;18.636;2022-10-16T07:37:57;98679.22;;;19.41;100.00
56992;BME280;42885;49.754;18.636;2022-10-16T07:40:28;98679.15;;;19.47;100.00
56992;BME280;42885;49.754;18.636;2022-10-16T07:42:59;98679.09;;;19.43;100.00
56992;BME280;42885;49.754;18.636;2022-10-16T07:45:31;98677.41;;;19.61;99.45
56992;BME280;42885;49.754;18.636;2022-10-16T07:48:02;98681.22;;;19.63;100.00
56992;BME280;42885;49.754;18.636;2022-10-16T07:50:33;98684.86;;;19.62;100.00
56992;BME280;42885;49.754;18.636;2022-10-16T07:53:04;98692.08;;;19.56;100.00
56992;BME280;42885;49.754;18.636;2022-10-16T07:55:35;98687.54;;;19.52;100.00
56992;BME280;42885;49.754;18.636;2022-10-16T07:58:06;98686.69;;;19.61;99.09
56992;BME280;42885;49.754;18.636;2022-10-16T08:00:37;98698.00;;;19.73;97.62
56992;BME280;42885;49.754;18.636;2022-10-16T08:03:08;98697.79;;;19.71;96.95
56992;BME280;42885;49.754;18.636;2022-10-16T08:05:39;98700.28;;;19.82;96.58
56992;BME280;42885;49.754;18.636;2022-10-16T08:08:15;98704.27;;;19.92;94.07
56992;BME280;42885;49.754;18.636;2022-10-16T08:10:46;98702.88;;;19.98;92.91
56992;BME280;42885;49.754;18.636;2022-10-16T08:13:17;98699.58;;;20.33;90.98
56992;BME280;42885;49.754;18.636;2022-10-16T08:15:48;98705.90;;;20.60;87.46
56992;BME280;42885;49.754;18.636;2022-10-16T08:18:19;98705.90;;;20.60;87.46
56992;BME280;42885;49.754;18.636;2022-10-16T08:20:57;98708.97;;;20.80;84.74
56992;BME280;42885;49.754;18.636;2022-10-16T08:23:29;98705.48;;;21.07;83.17
56992;BME280;42885;49.754;18.636;2022-10-16T08:26:05;98711.97;;;21.23;80.36
56992;BME280;42885;49.754;18.636;2022-10-16T08:28:37;98709.77;;;21.54;79.07
56992;BME280;42885;49.754;18.636;2022-10-16T08:31:18;98715.14;;;21.40;77.10
56992;BME280;42885;49.754;18.636;2022-10-16T08:33:49;98714.27;;;21.36;80.93
56992;BME280;42885;49.754;18.636;2022-10-16T08:36:21;98715.02;;;21.46;79.71
56992;BME280;42885;49.754;18.636;2022-10-16T08:38:54;98712.91;;;21.54;79.41
56992;BME280;42885;49.754;18.636;2022-10-16T08:41:39;98708.51;;;21.63;77.90
56992;BME280;42885;49.754;18.636;2022-10-16T08:44:30;98706.02;;;21.43;78.51
56992;BME280;42885;49.754;18.636;2022-10-16T08:47:31;98714.34;;;21.44;77.60
56992;BME280;42885;49.754;18.636;2022-10-16T08:49:57;98712.16;;;21.43;78.73
56992;BME280;42885;49.754;18.636;2022-10-16T08:52:33;98703.89;;;21.47;78.57
56992;BME280;42885;49.754;18.636;2022-10-16T08:55:06;98698.58;;;21.51;77.06
56992;BME280;42885;49.754;18.636;2022-10-16T08:57:37;98703.43;;;21.51;77.77
56992;BME280;42885;49.754;18.636;2022-10-16T09:00:12;98697.30;;;21.55;76.34
56992;BME280;42885;49.754;18.636;2022-10-16T09:02:53;98695.97;;;21.55;75.98
56992;BME280;42885;49.754;18.636;2022-10-16T09:05:37;98700.93;;;21.54;75.13
56992;BME280;42885;49.754;18.636;2022-10-16T09:11:03;98710.50;;;21.61;75.41
56992;BME280;42885;49.754;18.636;2022-10-16T09:13:37;98712.80;;;21.73;75.25
56992;BME280;42885;49.754;18.636;2022-10-16T09:16:34;98717.80;;;21.77;72.81
56992;BME280;42885;49.754;18.636;2022-10-16T09:21:48;98721.23;;;22.09;73.57
56992;BME280;42885;49.754;18.636;2022-10-16T09:24:23;98720.52;;;22.30;70.36
56992;BME280;42885;49.754;18.636;2022-10-16T09:26:54;98724.42;;;22.13;71.20
56992;BME280;42885;49.754;18.636;2022-10-16T09:29:25;98719.32;;;22.02;70.22
56992;BME280;42885;49.754;18.636;2022-10-16T09:31:57;98734.15;;;22.26;69.51
56992;BME280;42885;49.754;18.636;2022-10-16T09:34:35;98732.37;;;22.09;69.58
56992;BME280;42885;49.754;18.636;2022-10-16T09:37:09;98740.04;;;22.12;71.74
56992;BME280;42885;49.754;18.636;2022-10-16T09:39:48;98737.64;;;22.00;70.41
56992;BME280;42885;49.754;18.636;2022-10-16T09:42:31;98734.66;;;22.26;70.49
56992;BME280;42885;49.754;18.636;2022-10-16T09:44:57;98745.25;;;21.95;69.83
56992;BME280;42885;49.754;18.636;2022-10-16T09:47:30;98745.94;;;22.20;69.23
56992;BME280;42885;49.754;18.636;2022-10-16T09:50:31;98746.55;;;22.09;70.47
56992;BME280;42885;49.754;18.636;2022-10-16T09:52:40;98749.16;;;22.05;70.29
56992;BME280;42885;49.754;18.636;2022-10-16T09:55:16;98747.90;;;21.91;71.13
56992;BME280;42885;49.754;18.636;2022-10-16T09:57:52;98748.88;;;22.08;70.21
56992;BME280;42885;49.754;18.636;2022-10-16T10:00:24;98745.86;;;22.34;69.83
56992;BME280;42885;49.754;18.636;2022-10-16T10:02:55;98753.84;;;22.30;70.03
56992;BME280;42885;49.754;18.636;2022-10-16T10:05:28;98751.23;;;22.38;69.80
56992;BME280;42885;49.754;18.636;2022-10-16T10:08:03;98756.86;;;22.35;69.76
56992;BME280;42885;49.754;18.636;2022-10-16T10:10:41;98758.38;;;22.37;70.70
56992;BME280;42885;49.754;18.636;2022-10-16T10:13:19;98760.08;;;22.65;68.60
56992;BME280;42885;49.754;18.636;2022-10-16T10:15:51;98761.26;;;22.66;69.72
56992;BME280;42885;49.754;18.636;2022-10-16T10:18:23;98758.74;;;22.65;69.92
56992;BME280;42885;49.754;18.636;2022-10-16T10:21:04;98759.48;;;22.79;70.29
56992;BME280;42885;49.754;18.636;2022-10-16T10:23:30;98756.03;;;22.57;69.02
56992;BME280;42885;49.754;18.636;2022-10-16T10:26:16;98760.89;;;22.61;68.69
56992;BME280;42885;49.754;18.636;2022-10-16T10:29:15;98759.41;;;22.67;69.36
56992;BME280;42885;49.754;18.636;2022-10-16T10:31:26;98757.19;;;22.89;69.79
56992;BME280;42885;49.754;18.636;2022-10-16T10:34:23;98756.45;;;22.74;68.92
56992;BME280;42885;49.754;18.636;2022-10-16T10:37:10;98761.38;;;22.61;70.56
56992;BME280;42885;49.754;18.636;2022-10-16T10:39:47;98762.83;;;22.86;68.74
56992;BME280;42885;49.754;18.636;2022-10-16T10:42:28;98769.79;;;22.74;67.90
56992;BME280;42885;49.754;18.636;2022-10-16T10:45:07;98769.16;;;22.80;69.37
56992;BME280;42885;49.754;18.636;2022-10-16T10:50:37;98758.45;;;22.76;67.19
56992;BME280;42885;49.754;18.636;2022-10-16T10:53:42;98758.06;;;23.06;65.49
56992;BME280;42885;49.754;18.636;2022-10-16T10:59:02;98756.95;;;23.13;63.86
56992;BME280;42885;49.754;18.636;2022-10-16T11:04:23;98754.30;;;23.25;63.76
56992;BME280;42885;49.754;18.636;2022-10-16T11:06:52;98751.36;;;23.41;64.33
56992;BME280;42885;49.754;18.636;2022-10-16T11:09:32;98754.39;;;23.67;64.32
56992;BME280;42885;49.754;18.636;2022-10-16T11:14:56;98763.39;;;23.49;64.24
56992;BME280;42885;49.754;18.636;2022-10-16T11:18:20;98759.22;;;23.42;64.68
56992;BME280;42885;49.754;18.636;2022-10-16T11:20:21;98754.42;;;23.79;63.38
56992;BME280;42885;49.754;18.636;2022-10-16T11:22:58;98761.92;;;23.88;62.58
56992;BME280;42885;49.754;18.636;2022-10-16T11:25:33;98765.63;;;24.12;64.99
56992;BME280;42885;49.754;18.636;2022-10-16T11:36:23;98761.11;;;24.08;61.91
56992;BME280;42885;49.754;18.636;2022-10-16T11:41:42;98764.77;;;24.11;63.41
56992;BME280;42885;49.754;18.636;2022-10-16T11:44:24;98771.45;;;24.11;63.54
56992;BME280;42885;49.754;18.636;2022-10-16T11:47:00;98771.09;;;24.02;63.83
56992;BME280;42885;49.754;18.636;2022-10-16T11:49:27;98768.61;;;23.67;67.41
56992;BME280;42885;49.754;18.636;2022-10-16T11:57:31;98760.21;;;23.45;71.05
56992;BME280;42885;49.754;18.636;2022-10-16T12:00:08;98765.02;;;23.33;69.80
56992;BME280;42885;49.754;18.636;2022-10-16T12:08:06;98760.53;;;23.34;67.54
56992;BME280;42885;49.754;18.636;2022-10-16T12:10:35;98757.92;;;23.84;66.04
56992;BME280;42885;49.754;18.636;2022-10-16T12:13:38;98761.73;;;23.69;66.75
56992;BME280;42885;49.754;18.636;2022-10-16T12:18:47;98765.22;;;23.48;66.67
56992;BME280;42885;49.754;18.636;2022-10-16T12:21:20;98763.89;;;23.57;66.61
56992;BME280;42885;49.754;18.636;2022-10-16T12:23:58;98762.76;;;24.26;62.31
56992;BME280;42885;49.754;18.636;2022-10-16T12:26:37;98767.63;;;24.18;62.06
56992;BME280;42885;49.754;18.636;2022-10-16T12:29:28;98769.62;;;23.74;64.30
56992;BME280;42885;49.754;18.636;2022-10-16T12:31:55;98773.56;;;23.45;66.37
56992;BME280;42885;49.754;18.636;2022-10-16T12:34:36;98771.02;;;24.72;62.71
56992;BME280;42885;49.754;18.636;2022-10-16T12:37:23;98781.49;;;24.09;60.78
56992;BME280;42885;49.754;18.636;2022-10-16T12:39:56;98785.62;;;23.62;64.41
56992;BME280;42885;49.754;18.636;2022-10-16T12:47:50;98792.75;;;22.67;72.60
56992;BME280;42885;49.754;18.636;2022-10-16T12:50:28;98787.75;;;22.64;73.77
56992;BME280;42885;49.754;18.636;2022-10-16T12:53:03;98791.70;;;22.55;75.75
56992;BME280;42885;49.754;18.636;2022-10-16T12:55:43;98792.77;;;22.49;75.16
56992;BME280;42885;49.754;18.636;2022-10-16T12:58:15;98794.77;;;22.69;74.62
56992;BME280;42885;49.754;18.636;2022-10-16T13:00:45;98787.33;;;23.28;70.59
56992;BME280;42885;49.754;18.636;2022-10-16T13:03:38;98781.42;;;23.51;68.29
56992;BME280;42885;49.754;18.636;2022-10-16T13:11:37;98793.29;;;23.65;69.17
56992;BME280;42885;49.754;18.636;2022-10-16T13:14:10;98799.84;;;23.71;66.17
56992;BME280;42885;49.754;18.636;2022-10-16T13:17:14;98795.77;;;24.87;61.74
56992;BME280;42885;49.754;18.636;2022-10-16T13:19:52;98787.03;;;26.07;54.10
56992;BME280;42885;49.754;18.636;2022-10-16T13:28:27;98803.66;;;23.13;71.41
56992;BME280;42885;49.754;18.636;2022-10-16T13:31:00;98806.63;;;23.05;74.81
56992;BME280;42885;49.754;18.636;2022-10-16T13:33:43;98807.23;;;22.95;74.12
56992;BME280;42885;49.754;18.636;2022-10-16T13:36:25;98810.99;;;22.76;73.60
56992;BME280;42885;49.754;18.636;2022-10-16T13:39:19;98806.18;;;22.79;74.47
56992;BME280;42885;49.754;18.636;2022-10-16T13:42:07;98809.70;;;22.84;73.99
56992;BME280;42885;49.754;18.636;2022-10-16T13:44:42;98805.55;;;22.90;73.79
56992;BME280;42885;49.754;18.636;2022-10-16T13:47:21;98803.35;;;23.28;73.30
56992;BME280;42885;49.754;18.636;2022-10-16T13:50:13;98796.53;;;24.10;65.90
56992;BME280;42885;49.754;18.636;2022-10-16T13:52:45;98805.33;;;23.73;68.64
56992;BME280;42885;49.754;18.636;2022-10-16T13:55:18;98811.11;;;23.44;69.30
56992;BME280;42885;49.754;18.636;2022-10-16T13:57:48;98802.14;;;23.70;70.24
56992;BME280;42885;49.754;18.636;2022-10-16T14:00:27;98802.16;;;23.78;68.83
56992;BME280;42885;49.754;18.636;2022-10-16T14:02:56;98808.08;;;22.91;72.64
56992;BME280;42885;49.754;18.636;2022-10-16T14:05:27;98803.76;;;22.68;75.16
56992;BME280;42885;49.754;18.636;2022-10-16T14:07:58;98804.80;;;22.75;75.49
56992;BME280;42885;49.754;18.636;2022-10-16T14:10:31;98803.51;;;22.79;74.60
56992;BME280;42885;49.754;18.636;2022-10-16T14:13:05;98810.18;;;22.53;76.86
56992;BME280;42885;49.754;18.636;2022-10-16T14:15:37;98811.69;;;22.33;78.02
56992;BME280;42885;49.754;18.636;2022-10-16T14:18:14;98811.56;;;22.39;77.89
56992;BME280;42885;49.754;18.636;2022-10-16T14:20:44;98813.04;;;22.37;78.77
56992;BME280;42885;49.754;18.636;2022-10-16T14:23:28;98817.84;;;22.34;79.58
56992;BME280;42885;49.754;18.636;2022-10-16T14:26:11;98821.67;;;22.53;79.83
56992;BME280;42885;49.754;18.636;2022-10-16T14:28:40;98820.56;;;22.38;81.89
56992;BME280;42885;49.754;18.636;2022-10-16T14:31:32;98825.97;;;22.28;80.65